Airfield :







YOU CAN JOIN US ON...

 
LOGIN :

Register | Disclaimer

   EN    FR    IT 

 









Legend :    VFR   Marginal VFR   IFR   Intensive IFR   Very Intensive IFR
Visi :
Ceiling :
>= 8 km
>= 3000ft
5 to 8 km
1000 to 3000 ft
1500m to 5 km
500 to 1000 ft
800 to 1500m
200 to 500 ft
< 800m
< 200 ft
Symbols :   Thunderstorms  Fog  Heavy snow  Heavy precipitations  Wind > 20 kt






- Airport Elevation : 23 ft
- IATA code : STT


TIST - King

CURRENT METAR :
  • 281853Z 21003KT 10SM SCT030 28/21 A2993 RMK AO2 SLP134 T02830211

EXPIRED METARs :
  • 281815Z 19003KT 10SM SCT030 28/21 A2993 RMK AO2 T02830211
  • 281800Z 21004KT 10SM BKN027 OVC038 28/21 A2993 RMK AO2 T02830211
  • 281653Z 15004KT 10SM SCT028 29/22 A2995 RMK AO2 SLP141 T02890217

TAF TIST
Valid from the 28 at 18:00 until the 29 at 18:00 UTC


281759Z 2818/2918 VRB05KT P6SM FEW025
FM282200 07010KT P6SM FEW025
FM291400 10012KT P6SM FEW025
TJZS FIR / North America



MET'MAP, your aeronautical weather chart ! - Copyright ORBIFLY December 2007 - Disclaimer

ORBIFLY MET'MAP TEAM :

Programming & Development : Alexandra Zaïnal
Concept & original design : Baudouin d'Aumeries
Assistance for programming : Marc-Olivier Méhu
Technical & hardware support : Manuel Goepfert

Contact : metmap@orbifly.com




SOURCES & CREDITS :

   NOAA